createdAt,value
2019-03-17T00:01:40.311Z,89.90
2019-03-17T00:04:07.698Z,90.00
2019-03-17T00:06:35.327Z,90.00
2019-03-17T00:09:03.929Z,89.70
2019-03-17T00:11:31.322Z,89.50
2019-03-17T00:13:58.775Z,90.20
2019-03-17T00:16:26.168Z,89.40
2019-03-17T00:18:53.565Z,89.50
2019-03-17T00:21:21.223Z,89.70
2019-03-17T00:23:48.617Z,89.40
2019-03-17T00:26:16.024Z,89.30
2019-03-17T00:28:44.494Z,89.40
2019-03-17T00:31:23.193Z,89.30
2019-03-17T00:33:41.143Z,90.10
2019-03-17T00:36:08.754Z,89.20
2019-03-17T00:38:36.154Z,89.20
2019-03-17T00:41:03.554Z,89.20
2019-03-17T00:43:31.010Z,89.10
2019-03-17T00:45:59.129Z,88.70
2019-03-17T00:48:26.514Z,88.60
2019-03-17T00:50:53.960Z,88.40
2019-03-17T00:53:21.350Z,88.40
2019-03-17T00:55:48.742Z,88.30
2019-03-17T00:58:16.535Z,88.30
2019-03-17T01:00:44.130Z,88.30
2019-03-17T01:03:11.541Z,88.30
2019-03-17T01:05:39.135Z,88.20
2019-03-17T01:08:06.524Z,87.80
2019-03-17T01:10:33.915Z,87.60
2019-03-17T01:13:01.442Z,87.30
2019-03-17T01:15:28.847Z,86.90
2019-03-17T01:17:56.239Z,86.30
2019-03-17T01:20:23.878Z,86.80
2019-03-17T01:22:51.254Z,86.20
2019-03-17T01:25:18.677Z,86.40
2019-03-17T01:27:46.142Z,86.40
2019-03-17T01:30:13.550Z,86.10
2019-03-17T01:32:40.943Z,85.90
2019-03-17T01:35:09.852Z,86.20
2019-03-17T01:37:37.567Z,86.10
2019-03-17T01:40:05.465Z,86.40
2019-03-17T01:42:33.008Z,86.30
2019-03-17T01:45:00.996Z,86.40
2019-03-17T01:47:28.386Z,86.20
2019-03-17T01:49:56.004Z,86.00
2019-03-17T01:52:23.402Z,85.40
2019-03-17T01:54:52.509Z,85.80
2019-03-17T01:57:19.927Z,85.80
2019-03-17T01:59:47.321Z,85.60
2019-03-17T02:02:14.721Z,85.60
2019-03-17T02:04:42.158Z,85.30
2019-03-17T02:07:09.537Z,84.90
2019-03-17T02:09:37.020Z,84.90
2019-03-17T02:12:04.609Z,84.60
2019-03-17T02:14:31.993Z,83.90
2019-03-17T02:16:59.400Z,84.50
2019-03-17T02:19:26.857Z,84.50
2019-03-17T02:21:54.257Z,84.50
2019-03-17T02:24:21.653Z,84.50
2019-03-17T02:26:49.097Z,84.30
2019-03-17T02:29:16.489Z,84.10
2019-03-17T02:31:43.884Z,84.00
2019-03-17T02:34:12.137Z,83.80
2019-03-17T02:36:39.749Z,83.70
2019-03-17T02:39:07.134Z,83.30
2019-03-17T02:41:34.563Z,83.40
2019-03-17T02:44:02.487Z,83.50
2019-03-17T02:46:29.887Z,83.60
2019-03-17T02:48:57.452Z,83.50
2019-03-17T02:51:24.873Z,83.70
2019-03-17T02:53:52.261Z,83.70
2019-03-17T02:56:19.704Z,83.50
2019-03-17T02:58:47.094Z,82.80
2019-03-17T03:01:14.508Z,83.00
2019-03-17T03:03:42.136Z,82.90
2019-03-17T03:06:09.525Z,82.50
2019-03-17T03:08:36.923Z,82.40
2019-03-17T03:11:04.586Z,82.70
2019-03-17T03:13:31.971Z,82.90
2019-03-17T03:15:59.371Z,83.00
2019-03-17T03:18:28.747Z,83.20
2019-03-17T03:20:56.170Z,83.00
2019-03-17T03:23:23.596Z,83.40
2019-03-17T03:25:51.039Z,82.30
2019-03-17T03:28:18.421Z,82.20
2019-03-17T03:30:45.815Z,81.90
2019-03-17T03:33:13.315Z,81.70
2019-03-17T03:35:40.711Z,81.90
2019-03-17T03:38:08.114Z,81.80
2019-03-17T03:40:35.574Z,82.20
2019-03-17T03:43:02.970Z,82.30
2019-03-17T03:45:32.505Z,82.00
2019-03-17T03:47:59.898Z,82.00
2019-03-17T03:50:27.308Z,82.00
2019-03-17T03:52:55.260Z,81.10
2019-03-17T03:55:22.661Z,81.50
2019-03-17T03:57:50.058Z,81.40
2019-03-17T04:00:17.850Z,81.20
2019-03-17T04:02:45.251Z,81.30
2019-03-17T04:05:12.647Z,81.50
2019-03-17T04:07:40.102Z,81.40
2019-03-17T04:10:07.967Z,80.80
2019-03-17T04:12:35.335Z,80.50
2019-03-17T04:15:02.986Z,80.40
2019-03-17T04:17:30.371Z,80.20
2019-03-17T04:19:57.763Z,80.20
2019-03-17T04:22:25.419Z,80.30
2019-03-17T04:24:52.820Z,80.70
2019-03-17T04:27:20.227Z,80.70
2019-03-17T04:29:47.664Z,81.00
2019-03-17T04:32:15.060Z,80.80
2019-03-17T04:34:42.461Z,80.60
2019-03-17T04:37:09.947Z,80.70
2019-03-17T04:39:37.359Z,80.80
2019-03-17T04:42:04.760Z,80.80
2019-03-17T04:44:32.374Z,80.80
2019-03-17T04:46:59.982Z,80.40
2019-03-17T04:49:27.386Z,80.30
2019-03-17T04:51:54.857Z,81.20
2019-03-17T04:54:22.249Z,79.70
2019-03-17T04:56:49.649Z,79.80
2019-03-17T04:59:17.253Z,79.40
2019-03-17T05:01:44.665Z,79.70
2019-03-17T05:04:12.081Z,79.60
2019-03-17T05:06:51.555Z,79.70
2019-03-17T05:09:08.771Z,79.50
2019-03-17T05:11:36.167Z,79.60
2019-03-17T05:14:03.698Z,79.60
2019-03-17T05:16:31.101Z,79.30
2019-03-17T05:18:58.504Z,79.40
2019-03-17T05:21:25.922Z,79.20
2019-03-17T05:24:13.064Z,79.40
2019-03-17T05:26:40.874Z,79.30
2019-03-17T05:29:08.286Z,79.00
2019-03-17T05:31:35.689Z,79.00
2019-03-17T05:34:03.122Z,78.90
2019-03-17T05:36:50.056Z,78.90
2019-03-17T05:39:17.490Z,78.60
2019-03-17T05:41:44.897Z,78.30
2019-03-17T05:44:12.303Z,77.90
2019-03-17T05:46:39.762Z,77.80
2019-03-17T05:49:07.181Z,77.30
2019-03-17T05:51:34.588Z,77.80
2019-03-17T05:54:02.461Z,77.50
2019-03-17T05:56:29.882Z,90.10
2019-03-17T05:58:57.282Z,77.10
2019-03-17T06:01:24.734Z,76.50
2019-03-17T06:03:52.152Z,76.50
2019-03-17T06:06:19.545Z,77.00
2019-03-17T06:08:46.961Z,77.10
2019-03-17T06:11:14.392Z,74.50
2019-03-17T06:13:41.779Z,74.90
2019-03-17T06:16:09.215Z,74.10
2019-03-17T06:18:36.620Z,73.50
2019-03-17T06:21:04.009Z,73.60
2019-03-17T06:23:31.596Z,73.40
2019-03-17T06:25:59.000Z,73.30
2019-03-17T06:28:26.866Z,73.20
2019-03-17T06:30:54.355Z,73.60
2019-03-17T06:33:21.748Z,72.90
2019-03-17T06:35:49.128Z,73.00
2019-03-17T06:38:16.606Z,71.80
2019-03-17T06:40:44.264Z,71.60
2019-03-17T06:43:11.654Z,70.70
2019-03-17T06:45:39.482Z,71.20
2019-03-17T06:48:06.950Z,70.20
2019-03-17T06:50:34.363Z,69.30
2019-03-17T06:53:01.857Z,70.30
2019-03-17T06:55:29.272Z,69.60
2019-03-17T06:57:56.670Z,69.70
2019-03-17T07:00:24.120Z,69.00
2019-03-17T07:02:51.533Z,67.90
2019-03-17T07:05:20.734Z,68.00
2019-03-17T07:07:48.473Z,68.20
2019-03-17T07:10:15.881Z,67.80
2019-03-17T07:12:43.282Z,67.30
2019-03-17T07:15:10.773Z,67.70
2019-03-17T07:17:38.197Z,67.40
2019-03-17T07:20:06.810Z,67.60
2019-03-17T07:22:34.335Z,66.00
2019-03-17T07:25:01.755Z,66.20
2019-03-17T07:27:29.183Z,65.70
2019-03-17T07:29:57.601Z,65.90
2019-03-17T07:32:25.002Z,64.90
2019-03-17T07:34:52.409Z,65.40
2019-03-17T07:37:19.841Z,65.20
2019-03-17T07:39:47.442Z,65.30
2019-03-17T07:42:15.348Z,64.20
2019-03-17T07:44:42.862Z,65.10
2019-03-17T07:47:10.269Z,64.30
2019-03-17T07:49:37.676Z,64.20
2019-03-17T07:52:05.105Z,62.60
2019-03-17T07:54:34.954Z,63.90
2019-03-17T07:57:01.722Z,64.10
2019-03-17T07:59:29.178Z,63.50
2019-03-17T08:01:56.601Z,63.20
2019-03-17T08:04:24.001Z,61.90
2019-03-17T08:06:51.458Z,62.90
2019-03-17T08:09:18.868Z,63.00
2019-03-17T08:11:46.278Z,62.00
2019-03-17T08:14:13.723Z,62.00
2019-03-17T08:16:41.116Z,63.00
2019-03-17T08:19:08.522Z,61.80
2019-03-17T08:21:35.964Z,62.30
2019-03-17T08:24:03.460Z,59.70
2019-03-17T08:26:30.862Z,59.60
2019-03-17T08:28:58.321Z,61.60
2019-03-17T08:31:25.730Z,60.30
2019-03-17T08:33:54.257Z,60.00
2019-03-17T08:36:21.909Z,59.50
2019-03-17T08:38:49.314Z,60.40
2019-03-17T08:41:16.904Z,60.50
2019-03-17T08:43:53.826Z,60.20
2019-03-17T08:46:13.580Z,59.60
2019-03-17T08:48:40.981Z,58.70
2019-03-17T08:51:08.644Z,58.10
2019-03-17T08:53:36.044Z,58.30
2019-03-17T08:56:03.434Z,57.80
2019-03-17T08:58:31.449Z,57.50
2019-03-17T09:00:58.866Z,57.20
2019-03-17T09:03:26.287Z,57.20
2019-03-17T09:05:53.714Z,57.00
2019-03-17T09:08:33.919Z,57.40
2019-03-17T09:10:50.322Z,57.20
2019-03-17T09:13:17.797Z,57.30
2019-03-17T09:15:45.182Z,58.00
2019-03-17T09:18:12.593Z,56.50
2019-03-17T09:20:40.242Z,56.30
2019-03-17T09:23:07.653Z,56.70
2019-03-17T09:25:35.071Z,56.60
2019-03-17T09:28:02.632Z,55.20
2019-03-17T09:30:30.132Z,55.30
2019-03-17T09:32:57.536Z,55.70
2019-03-17T09:35:24.975Z,54.90
2019-03-17T09:37:52.382Z,56.20
2019-03-17T09:40:20.161Z,54.40
2019-03-17T09:42:47.895Z,54.90
2019-03-17T09:45:15.386Z,55.00
2019-03-17T09:47:42.879Z,53.10
2019-03-17T09:50:10.345Z,53.70
2019-03-17T09:52:37.746Z,52.70
2019-03-17T09:55:05.466Z,53.10
2019-03-17T09:57:33.023Z,52.80
2019-03-17T10:00:00.525Z,52.70
2019-03-17T10:02:28.022Z,51.90
2019-03-17T10:04:55.474Z,52.30
2019-03-17T10:07:22.870Z,53.50
2019-03-17T10:09:50.265Z,52.40
2019-03-17T10:12:17.877Z,52.60
2019-03-17T10:14:45.279Z,51.00
2019-03-17T10:17:12.678Z,50.70
2019-03-17T10:19:40.138Z,50.20
2019-03-17T10:22:07.441Z,50.70
2019-03-17T10:24:34.858Z,51.00
2019-03-17T10:27:02.305Z,50.10
2019-03-17T10:29:29.710Z,48.00
2019-03-17T10:31:57.108Z,50.30
2019-03-17T10:34:26.372Z,50.20
2019-03-17T10:36:53.762Z,48.50
2019-03-17T10:39:21.406Z,48.10
2019-03-17T10:41:48.858Z,49.40
2019-03-17T10:44:16.773Z,49.60
2019-03-17T10:46:44.170Z,50.60
2019-03-17T10:49:11.642Z,49.50
2019-03-17T10:51:39.115Z,47.60
2019-03-17T10:54:06.481Z,45.70
2019-03-17T10:56:33.922Z,46.50
2019-03-17T10:59:01.318Z,46.60
2019-03-17T11:01:28.767Z,47.80
2019-03-17T11:03:56.247Z,46.90
2019-03-17T11:06:23.643Z,46.50
2019-03-17T11:08:51.034Z,45.90
2019-03-17T11:11:19.130Z,45.70
2019-03-17T11:13:46.528Z,45.80
2019-03-17T11:16:13.939Z,43.50
2019-03-17T11:18:41.366Z,44.20
2019-03-17T11:21:08.765Z,44.60
2019-03-17T11:23:37.374Z,43.80
2019-03-17T11:26:04.825Z,43.90
2019-03-17T11:28:32.221Z,41.50
2019-03-17T11:30:59.913Z,42.50
2019-03-17T11:33:27.370Z,42.00
2019-03-17T11:35:55.563Z,41.80
2019-03-17T11:38:23.070Z,41.70
2019-03-17T11:40:50.710Z,41.50
2019-03-17T11:43:18.290Z,41.50
2019-03-17T11:45:46.186Z,42.10
2019-03-17T11:48:13.627Z,40.30
2019-03-17T11:50:41.019Z,42.10
2019-03-17T11:53:08.446Z,41.70
2019-03-17T11:55:36.119Z,42.40
2019-03-17T11:58:03.510Z,40.50
2019-03-17T12:00:30.915Z,40.70
2019-03-17T12:02:58.472Z,39.40
2019-03-17T12:05:25.878Z,38.90
2019-03-17T12:07:54.381Z,39.80
2019-03-17T12:10:22.524Z,38.70
2019-03-17T12:12:49.915Z,38.90
2019-03-17T12:15:17.315Z,38.30
2019-03-17T12:17:45.000Z,37.10
2019-03-17T12:20:12.848Z,37.30
2019-03-17T12:22:40.280Z,35.60
2019-03-17T12:25:11.671Z,37.50
2019-03-17T12:27:39.458Z,35.40
2019-03-17T12:30:11.442Z,38.30
2019-03-17T12:32:38.873Z,38.50
2019-03-17T12:35:06.490Z,38.20
2019-03-17T12:37:33.991Z,38.90
2019-03-17T12:40:02.980Z,38.50
2019-03-17T12:42:31.196Z,37.70
2019-03-17T12:44:58.703Z,37.80
2019-03-17T12:47:27.193Z,38.20
2019-03-17T12:49:54.698Z,37.40
2019-03-17T12:52:23.926Z,36.60
2019-03-17T12:54:51.472Z,36.60
2019-03-17T12:57:18.953Z,35.10
2019-03-17T12:59:46.350Z,36.50
2019-03-17T13:02:13.850Z,33.80
2019-03-17T13:04:41.294Z,32.50
2019-03-17T13:07:08.809Z,28.90
2019-03-17T13:09:36.314Z,27.20
2019-03-17T13:12:03.699Z,27.40
2019-03-17T13:14:31.130Z,25.50
2019-03-17T13:16:58.968Z,27.40
2019-03-17T13:19:26.329Z,27.00
2019-03-17T13:21:53.753Z,26.50
2019-03-17T13:24:21.318Z,28.00
2019-03-17T13:26:48.708Z,26.70
2019-03-17T13:29:16.105Z,26.30
2019-03-17T13:31:43.725Z,26.40
2019-03-17T13:34:11.194Z,27.50
2019-03-17T13:36:38.545Z,28.30
2019-03-17T13:39:06.606Z,24.50
2019-03-17T13:41:34.193Z,24.40
2019-03-17T13:44:01.784Z,25.80
2019-03-17T13:46:29.407Z,25.80
2019-03-17T13:48:56.794Z,25.80
2019-03-17T13:51:24.237Z,26.90
2019-03-17T13:53:51.777Z,26.60
2019-03-17T13:56:19.295Z,24.50
2019-03-17T13:58:46.705Z,24.80
2019-03-17T14:01:14.143Z,24.30
2019-03-17T14:03:41.537Z,25.60
2019-03-17T14:06:09.027Z,26.40
2019-03-17T14:08:36.452Z,25.40
2019-03-17T14:11:03.860Z,25.30
2019-03-17T14:13:31.265Z,25.10
2019-03-17T14:15:58.841Z,25.30
2019-03-17T14:18:26.238Z,24.20
2019-03-17T14:20:53.630Z,23.80
2019-03-17T14:23:21.241Z,24.70
2019-03-17T14:25:48.651Z,25.50
2019-03-17T14:28:16.103Z,25.70
2019-03-17T14:30:43.506Z,25.40
2019-03-17T14:33:10.909Z,24.40
2019-03-17T14:35:38.306Z,24.50
2019-03-17T14:38:06.007Z,24.90
2019-03-17T14:40:33.786Z,25.00
2019-03-17T14:43:01.916Z,24.30
2019-03-17T14:45:29.625Z,23.50
2019-03-17T14:47:57.033Z,22.20
2019-03-17T14:50:24.446Z,22.50
2019-03-17T14:52:52.133Z,21.80
2019-03-17T14:55:19.627Z,22.60
2019-03-17T14:57:47.017Z,21.30
2019-03-17T15:00:15.924Z,20.60
2019-03-17T15:02:43.335Z,20.70
2019-03-17T15:05:10.766Z,21.30
2019-03-17T15:07:38.226Z,21.00
2019-03-17T15:10:07.841Z,21.30
2019-03-17T15:12:35.243Z,21.10
2019-03-17T15:15:03.476Z,21.50
2019-03-17T15:17:30.873Z,21.50
2019-03-17T15:19:58.277Z,20.90
2019-03-17T15:22:25.741Z,20.50
2019-03-17T15:24:53.160Z,20.20
2019-03-17T15:27:20.560Z,21.00
2019-03-17T15:29:48.107Z,21.30
2019-03-17T15:32:15.521Z,21.50
2019-03-17T15:34:42.938Z,22.00
2019-03-17T15:37:10.632Z,23.00
2019-03-17T15:39:38.031Z,24.50
2019-03-17T15:42:05.556Z,25.40
2019-03-17T15:44:34.562Z,25.70
2019-03-17T15:47:01.950Z,26.70
2019-03-17T15:49:30.489Z,27.40
2019-03-17T15:51:58.167Z,28.00
2019-03-17T15:54:25.579Z,28.30
2019-03-17T15:56:52.977Z,28.30
2019-03-17T15:59:22.349Z,28.90
2019-03-17T16:01:49.613Z,29.40
2019-03-17T16:04:19.614Z,29.60
2019-03-17T16:06:46.514Z,29.80
2019-03-17T16:09:13.950Z,30.30
2019-03-17T16:11:41.381Z,30.40
2019-03-17T16:14:09.105Z,30.50
2019-03-17T16:16:36.839Z,30.50
2019-03-17T16:19:04.178Z,30.60
2019-03-17T16:21:31.645Z,30.80
2019-03-17T16:23:59.065Z,30.80
2019-03-17T16:26:26.501Z,31.00
2019-03-17T16:28:54.192Z,30.90
2019-03-17T16:31:21.590Z,30.70
2019-03-17T16:33:49.031Z,30.80
2019-03-17T16:36:16.471Z,31.50
2019-03-17T16:38:43.962Z,32.60
2019-03-17T16:41:12.340Z,33.40
2019-03-17T16:43:41.686Z,33.70
2019-03-17T16:46:09.146Z,33.70
2019-03-17T16:48:36.598Z,34.10
2019-03-17T16:51:04.304Z,34.00
2019-03-17T16:53:31.742Z,34.20
2019-03-17T16:55:59.138Z,34.40
2019-03-17T16:58:27.014Z,34.60
2019-03-17T17:00:54.423Z,34.80
2019-03-17T17:03:21.817Z,35.00
2019-03-17T17:05:49.583Z,35.20
2019-03-17T17:08:18.153Z,35.50
2019-03-17T17:10:49.727Z,36.10
2019-03-17T17:13:14.941Z,36.70
2019-03-17T17:15:42.340Z,36.60
2019-03-17T17:18:09.738Z,37.00
2019-03-17T17:20:37.361Z,37.30
2019-03-17T17:23:04.751Z,37.70
2019-03-17T17:25:32.155Z,37.90
2019-03-17T17:27:59.740Z,38.10
2019-03-17T17:30:27.187Z,39.40
2019-03-17T17:32:54.588Z,38.90
2019-03-17T17:35:22.027Z,38.50
2019-03-17T17:37:49.436Z,39.10
2019-03-17T17:40:17.095Z,38.80
2019-03-17T17:42:44.543Z,38.60
2019-03-17T17:45:13.861Z,39.10
2019-03-17T17:47:41.257Z,38.90
2019-03-17T17:50:10.328Z,38.90
2019-03-17T17:52:37.741Z,39.30
2019-03-17T17:55:05.356Z,39.30
2019-03-17T17:57:32.976Z,39.80
2019-03-17T18:00:00.422Z,39.60
2019-03-17T18:02:27.770Z,40.10
2019-03-17T18:04:55.239Z,40.40
2019-03-17T18:07:22.647Z,40.60
2019-03-17T18:09:50.062Z,40.60
2019-03-17T18:12:21.349Z,41.60
2019-03-17T18:14:46.971Z,41.50
2019-03-17T18:17:14.377Z,41.30
2019-03-17T18:19:42.067Z,41.80
2019-03-17T18:22:10.087Z,42.10
2019-03-17T18:24:37.581Z,42.20
2019-03-17T18:27:05.073Z,42.80
2019-03-17T18:29:32.486Z,43.10
2019-03-17T18:32:00.073Z,42.90
2019-03-17T18:34:27.674Z,43.40
2019-03-17T18:36:55.092Z,43.30
2019-03-17T18:39:22.492Z,43.60
2019-03-17T18:41:49.940Z,43.70
2019-03-17T18:44:17.961Z,43.80
2019-03-17T18:46:46.954Z,43.90
2019-03-17T18:49:14.390Z,43.90
2019-03-17T18:51:41.799Z,44.30
2019-03-17T18:54:09.208Z,44.20
2019-03-17T18:56:36.670Z,44.60
2019-03-17T18:59:04.066Z,44.40
2019-03-17T19:01:31.481Z,44.90
2019-03-17T19:03:59.040Z,44.70
2019-03-17T19:06:26.448Z,45.00
2019-03-17T19:08:53.892Z,45.00
2019-03-17T19:11:21.446Z,51.60
2019-03-17T19:13:48.869Z,56.90
2019-03-17T19:16:16.265Z,60.50
2019-03-17T19:18:43.937Z,64.40
2019-03-17T19:21:11.362Z,66.30
2019-03-17T19:23:38.756Z,69.20
2019-03-17T19:26:06.213Z,73.50
2019-03-17T19:28:33.631Z,73.80
2019-03-17T19:31:01.021Z,76.80
2019-03-17T19:33:28.539Z,76.80
2019-03-17T19:35:55.940Z,78.30
2019-03-17T19:38:23.341Z,79.70
2019-03-17T19:40:51.089Z,82.50
2019-03-17T19:43:18.788Z,85.00
2019-03-17T19:45:46.681Z,88.30
2019-03-17T19:48:14.305Z,90.70
2019-03-17T19:50:41.729Z,91.50
2019-03-17T19:53:09.246Z,91.30
2019-03-17T19:55:36.710Z,94.70
2019-03-17T19:58:04.002Z,94.10
2019-03-17T20:00:31.546Z,98.30
2019-03-17T20:02:59.102Z,96.50
2019-03-17T20:05:26.568Z,94.90
2019-03-17T20:07:54.015Z,93.80
2019-03-17T20:10:21.804Z,93.80
2019-03-17T20:12:49.196Z,95.40
2019-03-17T20:15:16.608Z,98.00
2019-03-17T20:17:44.053Z,99.90
2019-03-17T20:20:11.652Z,99.90
2019-03-17T20:22:39.199Z,99.90
2019-03-17T20:25:07.049Z,99.90
2019-03-17T20:27:34.606Z,99.90
2019-03-17T20:30:02.101Z,99.90
2019-03-17T20:32:29.768Z,99.90
2019-03-17T20:34:57.181Z,99.90
2019-03-17T20:37:24.588Z,99.90
2019-03-17T20:39:54.092Z,99.90
2019-03-17T20:42:21.474Z,99.90
2019-03-17T20:44:49.112Z,99.90
2019-03-17T20:47:17.032Z,99.90
2019-03-17T20:49:44.463Z,99.90
2019-03-17T20:52:12.122Z,99.90
2019-03-17T20:54:39.901Z,99.90
2019-03-17T20:57:07.285Z,99.90
2019-03-17T20:59:36.093Z,99.90
2019-03-17T21:02:03.535Z,99.90
2019-03-17T21:04:31.062Z,99.90
2019-03-17T21:06:58.551Z,99.90
2019-03-17T21:09:26.004Z,99.90
2019-03-17T21:11:53.461Z,99.90
2019-03-17T21:14:22.697Z,99.90
2019-03-17T21:16:50.826Z,99.90
2019-03-17T21:19:18.241Z,99.90
2019-03-17T21:21:45.637Z,99.90
2019-03-17T21:24:13.210Z,99.90
2019-03-17T21:26:40.619Z,99.90
2019-03-17T21:29:08.018Z,99.90
2019-03-17T21:31:35.451Z,99.90
2019-03-17T21:34:02.866Z,99.90
2019-03-17T21:36:30.249Z,99.90
2019-03-17T21:38:57.762Z,99.90
2019-03-17T21:41:25.183Z,99.90
2019-03-17T21:43:59.379Z,99.90
2019-03-17T21:46:22.406Z,99.90
2019-03-17T21:48:49.809Z,99.90
2019-03-17T21:51:17.218Z,99.90
2019-03-17T21:53:44.924Z,99.90
2019-03-17T21:56:12.488Z,99.90
2019-03-17T21:58:39.847Z,99.90
2019-03-17T22:01:07.299Z,99.90
2019-03-17T22:03:34.726Z,99.90
2019-03-17T22:06:02.132Z,99.90
2019-03-17T22:08:29.670Z,99.90
2019-03-17T22:10:57.085Z,99.90
2019-03-17T22:13:24.492Z,99.90
2019-03-17T22:15:52.083Z,99.90
2019-03-17T22:18:19.478Z,99.90
2019-03-17T22:20:46.874Z,99.90
2019-03-17T22:23:14.302Z,99.90
2019-03-17T22:25:41.711Z,99.90
2019-03-17T22:28:09.116Z,99.90
2019-03-17T22:30:36.574Z,99.90
2019-03-17T22:33:03.985Z,99.90
2019-03-17T22:35:31.374Z,99.90
2019-03-17T22:37:58.849Z,99.90
2019-03-17T22:40:26.235Z,99.90
2019-03-17T22:42:53.671Z,99.90
2019-03-17T22:45:21.088Z,99.90
2019-03-17T22:47:49.002Z,99.90
2019-03-17T22:50:16.512Z,99.90
2019-03-17T22:52:44.303Z,99.90
2019-03-17T22:55:11.906Z,99.90
2019-03-17T22:57:39.310Z,99.90
2019-03-17T23:00:09.307Z,99.90
2019-03-17T23:02:36.689Z,99.90
2019-03-17T23:05:04.639Z,99.90
2019-03-17T23:07:32.087Z,99.90
2019-03-17T23:09:59.502Z,99.90
2019-03-17T23:12:26.911Z,99.90
2019-03-17T23:14:54.425Z,99.90
2019-03-17T23:17:21.841Z,99.90
2019-03-17T23:19:49.241Z,99.90
2019-03-17T23:22:16.721Z,99.90
2019-03-17T23:24:44.124Z,99.90
2019-03-17T23:27:11.629Z,99.90
2019-03-17T23:29:39.062Z,99.90
2019-03-17T23:32:06.471Z,99.90
2019-03-17T23:34:33.872Z,99.90
2019-03-17T23:37:01.329Z,99.90
2019-03-17T23:39:28.819Z,99.90
2019-03-17T23:41:56.228Z,99.90
2019-03-17T23:44:24.848Z,99.90
2019-03-17T23:46:52.417Z,99.90
2019-03-17T23:49:19.828Z,99.90
2019-03-17T23:51:47.537Z,99.90
2019-03-17T23:54:14.941Z,99.90
2019-03-17T23:56:42.345Z,99.90
2019-03-17T23:59:09.873Z,99.90
